sensor_id;sensor_type;location;lat;lon;timestamp;P1;durP1;ratioP1;P2;durP2;ratioP2
10511;SDS011;5304;48.604;2.096;2023-07-31T03:58:27;5.67;;;3.27;;
10511;SDS011;5304;48.604;2.096;2023-07-31T04:01:11;6.80;;;2.50;;
10511;SDS011;5304;48.604;2.096;2023-07-31T04:03:56;5.80;;;3.00;;
10511;SDS011;5304;48.604;2.096;2023-07-31T04:06:40;4.77;;;2.40;;
10511;SDS011;5304;48.604;2.096;2023-07-31T04:09:24;7.83;;;3.30;;
10511;SDS011;5304;48.604;2.096;2023-07-31T04:12:09;6.03;;;2.73;;
10511;SDS011;5304;48.604;2.096;2023-07-31T04:14:53;7.07;;;3.27;;
10511;SDS011;5304;48.604;2.096;2023-07-31T04:17:37;6.53;;;3.30;;
10511;SDS011;5304;48.604;2.096;2023-07-31T04:20:22;7.43;;;3.20;;
10511;SDS011;5304;48.604;2.096;2023-07-31T04:23:06;7.93;;;3.20;;
10511;SDS011;5304;48.604;2.096;2023-07-31T04:25:50;8.37;;;3.47;;
10511;SDS011;5304;48.604;2.096;2023-07-31T04:28:35;8.13;;;3.33;;
10511;SDS011;5304;48.604;2.096;2023-07-31T04:31:19;7.10;;;3.80;;
10511;SDS011;5304;48.604;2.096;2023-07-31T04:34:04;7.03;;;3.10;;
10511;SDS011;5304;48.604;2.096;2023-07-31T04:36:49;9.00;;;3.70;;
10511;SDS011;5304;48.604;2.096;2023-07-31T04:39:34;6.67;;;3.97;;
10511;SDS011;5304;48.604;2.096;2023-07-31T04:42:18;9.27;;;4.03;;
10511;SDS011;5304;48.604;2.096;2023-07-31T04:45:02;7.03;;;3.90;;
10511;SDS011;5304;48.604;2.096;2023-07-31T04:47:47;8.43;;;4.03;;
10511;SDS011;5304;48.604;2.096;2023-07-31T04:50:31;14.03;;;4.50;;
10511;SDS011;5304;48.604;2.096;2023-07-31T04:53:15;8.57;;;4.27;;
10511;SDS011;5304;48.604;2.096;2023-07-31T04:55:59;11.53;;;3.80;;
10511;SDS011;5304;48.604;2.096;2023-07-31T04:58:43;11.10;;;4.33;;
10511;SDS011;5304;48.604;2.096;2023-07-31T05:01:28;10.97;;;3.90;;
10511;SDS011;5304;48.604;2.096;2023-07-31T05:04:13;8.80;;;4.57;;
10511;SDS011;5304;48.604;2.096;2023-07-31T05:06:58;7.93;;;4.07;;
10511;SDS011;5304;48.604;2.096;2023-07-31T05:09:42;9.80;;;3.90;;
10511;SDS011;5304;48.604;2.096;2023-07-31T05:12:27;11.00;;;4.30;;
10511;SDS011;5304;48.604;2.096;2023-07-31T05:15:11;11.77;;;4.43;;
10511;SDS011;5304;48.604;2.096;2023-07-31T05:17:55;9.00;;;4.23;;
10511;SDS011;5304;48.604;2.096;2023-07-31T05:20:40;12.80;;;4.83;;
10511;SDS011;5304;48.604;2.096;2023-07-31T05:23:24;13.33;;;4.40;;
10511;SDS011;5304;48.604;2.096;2023-07-31T05:26:08;10.13;;;4.60;;
10511;SDS011;5304;48.604;2.096;2023-07-31T05:28:56;8.00;;;3.90;;
10511;SDS011;5304;48.604;2.096;2023-07-31T05:31:42;11.37;;;4.23;;
10511;SDS011;5304;48.604;2.096;2023-07-31T05:34:26;14.20;;;4.67;;
10511;SDS011;5304;48.604;2.096;2023-07-31T05:37:11;14.63;;;4.87;;
10511;SDS011;5304;48.604;2.096;2023-07-31T05:39:55;11.37;;;4.50;;
10511;SDS011;5304;48.604;2.096;2023-07-31T05:42:40;9.23;;;4.23;;
10511;SDS011;5304;48.604;2.096;2023-07-31T05:45:25;9.37;;;4.67;;
10511;SDS011;5304;48.604;2.096;2023-07-31T05:48:09;13.33;;;4.50;;
10511;SDS011;5304;48.604;2.096;2023-07-31T05:50:53;11.53;;;4.37;;
10511;SDS011;5304;48.604;2.096;2023-07-31T05:53:37;9.40;;;4.10;;
10511;SDS011;5304;48.604;2.096;2023-07-31T05:56:24;10.03;;;5.37;;
10511;SDS011;5304;48.604;2.096;2023-07-31T05:59:08;12.27;;;4.83;;
10511;SDS011;5304;48.604;2.096;2023-07-31T06:01:53;9.43;;;4.73;;
10511;SDS011;5304;48.604;2.096;2023-07-31T06:04:37;7.23;;;4.63;;
10511;SDS011;5304;48.604;2.096;2023-07-31T06:07:22;8.63;;;4.10;;
10511;SDS011;5304;48.604;2.096;2023-07-31T06:10:06;13.17;;;4.73;;
10511;SDS011;5304;48.604;2.096;2023-07-31T06:12:52;11.50;;;4.83;;
10511;SDS011;5304;48.604;2.096;2023-07-31T06:15:36;12.73;;;5.23;;
10511;SDS011;5304;48.604;2.096;2023-07-31T06:18:21;10.50;;;4.47;;
10511;SDS011;5304;48.604;2.096;2023-07-31T06:21:05;9.37;;;4.67;;
10511;SDS011;5304;48.604;2.096;2023-07-31T06:23:50;10.23;;;5.00;;
10511;SDS011;5304;48.604;2.096;2023-07-31T06:26:34;11.87;;;3.90;;
10511;SDS011;5304;48.604;2.096;2023-07-31T06:29:18;16.27;;;5.00;;
10511;SDS011;5304;48.604;2.096;2023-07-31T06:32:03;12.70;;;5.50;;
10511;SDS011;5304;48.604;2.096;2023-07-31T06:34:47;10.17;;;5.20;;
10511;SDS011;5304;48.604;2.096;2023-07-31T06:37:32;16.53;;;5.40;;
10511;SDS011;5304;48.604;2.096;2023-07-31T06:40:16;14.27;;;5.23;;
10511;SDS011;5304;48.604;2.096;2023-07-31T06:43:00;14.13;;;5.37;;
10511;SDS011;5304;48.604;2.096;2023-07-31T06:45:51;12.50;;;4.70;;
10511;SDS011;5304;48.604;2.096;2023-07-31T06:48:35;13.27;;;5.33;;
10511;SDS011;5304;48.604;2.096;2023-07-31T06:51:21;14.93;;;5.13;;
10511;SDS011;5304;48.604;2.096;2023-07-31T06:54:05;17.53;;;5.50;;
10511;SDS011;5304;48.604;2.096;2023-07-31T06:56:52;10.03;;;5.03;;
10511;SDS011;5304;48.604;2.096;2023-07-31T06:59:36;18.77;;;5.93;;
10511;SDS011;5304;48.604;2.096;2023-07-31T07:02:21;13.90;;;5.07;;
10511;SDS011;5304;48.604;2.096;2023-07-31T07:05:06;10.03;;;5.20;;
10511;SDS011;5304;48.604;2.096;2023-07-31T07:07:50;13.20;;;4.77;;
10511;SDS011;5304;48.604;2.096;2023-07-31T07:10:36;10.13;;;5.13;;
10511;SDS011;5304;48.604;2.096;2023-07-31T07:13:21;9.67;;;4.93;;
10511;SDS011;5304;48.604;2.096;2023-07-31T07:16:05;13.20;;;4.90;;
10511;SDS011;5304;48.604;2.096;2023-07-31T07:18:50;14.87;;;5.20;;
10511;SDS011;5304;48.604;2.096;2023-07-31T07:21:35;13.57;;;5.47;;
10511;SDS011;5304;48.604;2.096;2023-07-31T07:24:19;11.10;;;4.83;;
10511;SDS011;5304;48.604;2.096;2023-07-31T07:27:04;12.17;;;4.93;;
10511;SDS011;5304;48.604;2.096;2023-07-31T07:29:49;13.07;;;5.03;;
10511;SDS011;5304;48.604;2.096;2023-07-31T07:32:37;12.07;;;4.73;;
10511;SDS011;5304;48.604;2.096;2023-07-31T07:35:22;7.70;;;4.50;;
10511;SDS011;5304;48.604;2.096;2023-07-31T07:38:06;11.33;;;4.93;;
10511;SDS011;5304;48.604;2.096;2023-07-31T07:40:50;11.30;;;4.70;;
10511;SDS011;5304;48.604;2.096;2023-07-31T07:43:37;11.10;;;4.90;;
10511;SDS011;5304;48.604;2.096;2023-07-31T07:46:21;12.93;;;4.73;;
10511;SDS011;5304;48.604;2.096;2023-07-31T07:49:06;11.53;;;5.23;;
10511;SDS011;5304;48.604;2.096;2023-07-31T07:51:50;9.63;;;5.07;;
10511;SDS011;5304;48.604;2.096;2023-07-31T07:54:34;12.13;;;5.03;;
10511;SDS011;5304;48.604;2.096;2023-07-31T07:57:19;12.83;;;4.70;;
10511;SDS011;5304;48.604;2.096;2023-07-31T08:00:03;6.93;;;4.20;;
10511;SDS011;5304;48.604;2.096;2023-07-31T08:02:48;10.30;;;5.20;;
10511;SDS011;5304;48.604;2.096;2023-07-31T08:05:32;11.07;;;4.33;;
10511;SDS011;5304;48.604;2.096;2023-07-31T08:08:18;11.63;;;4.90;;
10511;SDS011;5304;48.604;2.096;2023-07-31T08:11:03;11.30;;;4.75;;
10511;SDS011;5304;48.604;2.096;2023-07-31T08:13:47;9.87;;;4.40;;
10511;SDS011;5304;48.604;2.096;2023-07-31T08:16:32;10.13;;;4.15;;
10511;SDS011;5304;48.604;2.096;2023-07-31T08:19:16;8.40;;;4.27;;
10511;SDS011;5304;48.604;2.096;2023-07-31T08:22:00;10.43;;;4.30;;
10511;SDS011;5304;48.604;2.096;2023-07-31T08:24:44;11.60;;;4.70;;
10511;SDS011;5304;48.604;2.096;2023-07-31T08:27:29;9.40;;;3.80;;
10511;SDS011;5304;48.604;2.096;2023-07-31T08:30:13;6.43;;;3.47;;
10511;SDS011;5304;48.604;2.096;2023-07-31T08:32:57;10.63;;;4.40;;
10511;SDS011;5304;48.604;2.096;2023-07-31T08:35:42;7.63;;;4.07;;
10511;SDS011;5304;48.604;2.096;2023-07-31T08:38:26;8.83;;;4.57;;
10511;SDS011;5304;48.604;2.096;2023-07-31T08:41:10;8.07;;;4.30;;
10511;SDS011;5304;48.604;2.096;2023-07-31T08:43:56;8.07;;;4.27;;
10511;SDS011;5304;48.604;2.096;2023-07-31T08:46:41;6.90;;;4.00;;
10511;SDS011;5304;48.604;2.096;2023-07-31T08:49:26;9.07;;;4.20;;
10511;SDS011;5304;48.604;2.096;2023-07-31T08:52:12;9.80;;;4.10;;
10511;SDS011;5304;48.604;2.096;2023-07-31T08:54:56;9.17;;;4.07;;
10511;SDS011;5304;48.604;2.096;2023-07-31T08:57:41;6.83;;;4.00;;
10511;SDS011;5304;48.604;2.096;2023-07-31T09:00:26;7.23;;;4.47;;
10511;SDS011;5304;48.604;2.096;2023-07-31T09:03:15;7.60;;;4.27;;
10511;SDS011;5304;48.604;2.096;2023-07-31T09:06:02;9.63;;;3.80;;
10511;SDS011;5304;48.604;2.096;2023-07-31T09:08:47;7.07;;;4.23;;
10511;SDS011;5304;48.604;2.096;2023-07-31T09:11:33;10.37;;;4.60;;
10511;SDS011;5304;48.604;2.096;2023-07-31T09:14:17;9.77;;;4.40;;
10511;SDS011;5304;48.604;2.096;2023-07-31T09:17:02;8.07;;;4.17;;
10511;SDS011;5304;48.604;2.096;2023-07-31T09:19:46;8.57;;;4.20;;
10511;SDS011;5304;48.604;2.096;2023-07-31T09:22:31;10.57;;;4.40;;
10511;SDS011;5304;48.604;2.096;2023-07-31T09:25:21;9.30;;;4.13;;
10511;SDS011;5304;48.604;2.096;2023-07-31T09:28:07;12.03;;;4.27;;
10511;SDS011;5304;48.604;2.096;2023-07-31T09:30:53;11.40;;;4.50;;
10511;SDS011;5304;48.604;2.096;2023-07-31T09:33:44;12.57;;;4.50;;
10511;SDS011;5304;48.604;2.096;2023-07-31T09:36:50;8.27;;;4.10;;
10511;SDS011;5304;48.604;2.096;2023-07-31T09:39:47;9.13;;;4.27;;
10511;SDS011;5304;48.604;2.096;2023-07-31T09:42:31;8.73;;;4.37;;
10511;SDS011;5304;48.604;2.096;2023-07-31T09:45:18;8.57;;;4.63;;
10511;SDS011;5304;48.604;2.096;2023-07-31T09:48:03;12.50;;;4.50;;
10511;SDS011;5304;48.604;2.096;2023-07-31T09:50:54;8.90;;;4.38;;
10511;SDS011;5304;48.604;2.096;2023-07-31T09:53:39;13.33;;;5.60;;
10511;SDS011;5304;48.604;2.096;2023-07-31T09:56:23;9.53;;;5.03;;
10511;SDS011;5304;48.604;2.096;2023-07-31T09:59:10;9.47;;;5.10;;
10511;SDS011;5304;48.604;2.096;2023-07-31T10:02:01;10.33;;;5.13;;
10511;SDS011;5304;48.604;2.096;2023-07-31T10:04:46;8.38;;;4.47;;
10511;SDS011;5304;48.604;2.096;2023-07-31T10:07:42;9.90;;;4.72;;
10511;SDS011;5304;48.604;2.096;2023-07-31T10:10:32;13.02;;;5.40;;
10511;SDS011;5304;48.604;2.096;2023-07-31T10:13:24;10.88;;;4.70;;
10511;SDS011;5304;48.604;2.096;2023-07-31T10:16:11;11.43;;;4.75;;
10511;SDS011;5304;48.604;2.096;2023-07-31T10:18:57;12.25;;;4.65;;
10511;SDS011;5304;48.604;2.096;2023-07-31T10:21:42;8.43;;;4.10;;
10511;SDS011;5304;48.604;2.096;2023-07-31T10:24:29;11.68;;;4.50;;
10511;SDS011;5304;48.604;2.096;2023-07-31T10:27:14;9.70;;;4.70;;
10511;SDS011;5304;48.604;2.096;2023-07-31T10:29:58;12.02;;;4.80;;
10511;SDS011;5304;48.604;2.096;2023-07-31T10:32:44;11.32;;;4.75;;
10511;SDS011;5304;48.604;2.096;2023-07-31T10:35:30;11.43;;;4.82;;
10511;SDS011;5304;48.604;2.096;2023-07-31T10:38:14;9.18;;;4.38;;
10511;SDS011;5304;48.604;2.096;2023-07-31T10:41:07;8.25;;;4.30;;
10511;SDS011;5304;48.604;2.096;2023-07-31T10:43:57;8.10;;;4.63;;
10511;SDS011;5304;48.604;2.096;2023-07-31T10:46:44;9.57;;;5.03;;
10511;SDS011;5304;48.604;2.096;2023-07-31T10:49:29;10.05;;;4.75;;
10511;SDS011;5304;48.604;2.096;2023-07-31T10:52:19;9.77;;;4.70;;
10511;SDS011;5304;48.604;2.096;2023-07-31T10:58:22;7.75;;;4.63;;
10511;SDS011;5304;48.604;2.096;2023-07-31T11:01:06;10.15;;;4.38;;
10511;SDS011;5304;48.604;2.096;2023-07-31T11:03:50;11.57;;;5.18;;
10511;SDS011;5304;48.604;2.096;2023-07-31T11:06:37;8.65;;;4.93;;
10511;SDS011;5304;48.604;2.096;2023-07-31T11:09:21;10.68;;;4.68;;
10511;SDS011;5304;48.604;2.096;2023-07-31T11:12:05;11.45;;;4.55;;
10511;SDS011;5304;48.604;2.096;2023-07-31T11:14:54;10.30;;;4.32;;
10511;SDS011;5304;48.604;2.096;2023-07-31T11:17:40;10.88;;;5.25;;
10511;SDS011;5304;48.604;2.096;2023-07-31T11:20:25;11.27;;;4.63;;
10511;SDS011;5304;48.604;2.096;2023-07-31T11:23:10;10.20;;;4.88;;
10511;SDS011;5304;48.604;2.096;2023-07-31T11:25:54;8.32;;;3.95;;
10511;SDS011;5304;48.604;2.096;2023-07-31T11:28:45;10.80;;;4.35;;
10511;SDS011;5304;48.604;2.096;2023-07-31T11:31:30;9.48;;;4.03;;
10511;SDS011;5304;48.604;2.096;2023-07-31T11:34:14;10.05;;;4.63;;
10511;SDS011;5304;48.604;2.096;2023-07-31T11:37:00;6.28;;;3.90;;
10511;SDS011;5304;48.604;2.096;2023-07-31T11:39:58;7.60;;;3.85;;
10511;SDS011;5304;48.604;2.096;2023-07-31T11:42:43;7.30;;;3.70;;
10511;SDS011;5304;48.604;2.096;2023-07-31T11:45:27;8.73;;;4.00;;
10511;SDS011;5304;48.604;2.096;2023-07-31T11:48:18;8.77;;;3.78;;
10511;SDS011;5304;48.604;2.096;2023-07-31T11:51:12;7.50;;;3.80;;
10511;SDS011;5304;48.604;2.096;2023-07-31T11:53:58;7.55;;;4.43;;
10511;SDS011;5304;48.604;2.096;2023-07-31T11:56:45;6.47;;;3.58;;
10511;SDS011;5304;48.604;2.096;2023-07-31T11:59:29;5.75;;;4.00;;
10511;SDS011;5304;48.604;2.096;2023-07-31T12:02:13;8.63;;;4.20;;
10511;SDS011;5304;48.604;2.096;2023-07-31T12:04:58;5.68;;;3.78;;
10511;SDS011;5304;48.604;2.096;2023-07-31T12:07:46;6.07;;;3.88;;
10511;SDS011;5304;48.604;2.096;2023-07-31T12:10:32;7.18;;;4.13;;
10511;SDS011;5304;48.604;2.096;2023-07-31T12:13:23;8.68;;;3.88;;
10511;SDS011;5304;48.604;2.096;2023-07-31T12:16:12;7.95;;;4.18;;
10511;SDS011;5304;48.604;2.096;2023-07-31T12:18:56;6.57;;;4.20;;
10511;SDS011;5304;48.604;2.096;2023-07-31T12:21:41;9.60;;;4.00;;
10511;SDS011;5304;48.604;2.096;2023-07-31T12:24:26;8.50;;;3.92;;
10511;SDS011;5304;48.604;2.096;2023-07-31T12:27:11;5.07;;;3.65;;
10511;SDS011;5304;48.604;2.096;2023-07-31T12:29:56;8.60;;;4.00;;
10511;SDS011;5304;48.604;2.096;2023-07-31T12:32:40;9.30;;;3.88;;
10511;SDS011;5304;48.604;2.096;2023-07-31T12:35:25;11.18;;;4.82;;
10511;SDS011;5304;48.604;2.096;2023-07-31T12:38:17;8.57;;;3.97;;
10511;SDS011;5304;48.604;2.096;2023-07-31T12:41:02;7.35;;;3.97;;
10511;SDS011;5304;48.604;2.096;2023-07-31T12:43:46;11.70;;;4.30;;
10511;SDS011;5304;48.604;2.096;2023-07-31T12:46:30;9.10;;;3.78;;
10511;SDS011;5304;48.604;2.096;2023-07-31T12:49:14;9.48;;;4.03;;
10511;SDS011;5304;48.604;2.096;2023-07-31T12:51:59;6.63;;;3.92;;
10511;SDS011;5304;48.604;2.096;2023-07-31T12:54:43;8.07;;;4.03;;
10511;SDS011;5304;48.604;2.096;2023-07-31T12:57:27;6.93;;;3.90;;
10511;SDS011;5304;48.604;2.096;2023-07-31T13:00:11;8.25;;;3.70;;
10511;SDS011;5304;48.604;2.096;2023-07-31T13:02:56;9.50;;;4.40;;
10511;SDS011;5304;48.604;2.096;2023-07-31T13:05:41;7.50;;;4.10;;
10511;SDS011;5304;48.604;2.096;2023-07-31T13:08:26;7.00;;;4.15;;
10511;SDS011;5304;48.604;2.096;2023-07-31T13:11:09;7.05;;;3.45;;
10511;SDS011;5304;48.604;2.096;2023-07-31T13:13:54;7.63;;;3.30;;
10511;SDS011;5304;48.604;2.096;2023-07-31T13:16:38;5.82;;;2.80;;
10511;SDS011;5304;48.604;2.096;2023-07-31T13:19:22;5.47;;;2.90;;
10511;SDS011;5304;48.604;2.096;2023-07-31T13:22:07;5.80;;;3.05;;
10511;SDS011;5304;48.604;2.096;2023-07-31T13:24:51;7.35;;;3.08;;
10511;SDS011;5304;48.604;2.096;2023-07-31T13:27:35;6.35;;;3.10;;
10511;SDS011;5304;48.604;2.096;2023-07-31T13:30:20;5.82;;;2.78;;
10511;SDS011;5304;48.604;2.096;2023-07-31T13:33:04;4.97;;;3.00;;
10511;SDS011;5304;48.604;2.096;2023-07-31T13:35:49;6.22;;;2.75;;
10511;SDS011;5304;48.604;2.096;2023-07-31T13:38:33;6.28;;;3.03;;
10511;SDS011;5304;48.604;2.096;2023-07-31T13:41:18;5.82;;;2.90;;
10511;SDS011;5304;48.604;2.096;2023-07-31T13:44:02;4.88;;;2.45;;
10511;SDS011;5304;48.604;2.096;2023-07-31T13:46:46;4.30;;;2.80;;
10511;SDS011;5304;48.604;2.096;2023-07-31T13:49:31;8.50;;;2.70;;
10511;SDS011;5304;48.604;2.096;2023-07-31T13:52:15;7.03;;;3.03;;
10511;SDS011;5304;48.604;2.096;2023-07-31T13:55:00;5.53;;;2.90;;
10511;SDS011;5304;48.604;2.096;2023-07-31T13:57:44;5.57;;;2.70;;
10511;SDS011;5304;48.604;2.096;2023-07-31T14:00:28;5.20;;;2.65;;
10511;SDS011;5304;48.604;2.096;2023-07-31T14:03:13;7.65;;;2.90;;
10511;SDS011;5304;48.604;2.096;2023-07-31T14:05:57;9.75;;;3.15;;
10511;SDS011;5304;48.604;2.096;2023-07-31T14:08:42;5.40;;;2.78;;
10511;SDS011;5304;48.604;2.096;2023-07-31T14:11:26;5.70;;;2.90;;
10511;SDS011;5304;48.604;2.096;2023-07-31T14:14:11;7.60;;;3.55;;
10511;SDS011;5304;48.604;2.096;2023-07-31T14:16:56;6.13;;;2.95;;
10511;SDS011;5304;48.604;2.096;2023-07-31T14:19:40;8.68;;;3.10;;
10511;SDS011;5304;48.604;2.096;2023-07-31T14:22:28;8.35;;;3.10;;
10511;SDS011;5304;48.604;2.096;2023-07-31T14:25:13;7.18;;;3.10;;
10511;SDS011;5304;48.604;2.096;2023-07-31T14:27:58;4.60;;;3.03;;
10511;SDS011;5304;48.604;2.096;2023-07-31T14:30:42;6.53;;;3.05;;
10511;SDS011;5304;48.604;2.096;2023-07-31T14:33:26;8.52;;;3.22;;
10511;SDS011;5304;48.604;2.096;2023-07-31T14:36:10;6.53;;;2.92;;
10511;SDS011;5304;48.604;2.096;2023-07-31T14:38:55;6.63;;;3.10;;
10511;SDS011;5304;48.604;2.096;2023-07-31T14:41:39;7.30;;;3.05;;
10511;SDS011;5304;48.604;2.096;2023-07-31T14:44:23;6.78;;;3.05;;
10511;SDS011;5304;48.604;2.096;2023-07-31T14:47:07;4.82;;;3.05;;
10511;SDS011;5304;48.604;2.096;2023-07-31T14:49:52;5.53;;;3.25;;
10511;SDS011;5304;48.604;2.096;2023-07-31T14:52:36;5.65;;;3.15;;
10511;SDS011;5304;48.604;2.096;2023-07-31T14:55:21;5.13;;;3.13;;
10511;SDS011;5304;48.604;2.096;2023-07-31T14:58:05;6.28;;;3.17;;
10511;SDS011;5304;48.604;2.096;2023-07-31T15:00:49;5.50;;;3.80;;
10511;SDS011;5304;48.604;2.096;2023-07-31T15:03:34;4.43;;;2.92;;
10511;SDS011;5304;48.604;2.096;2023-07-31T15:06:18;9.25;;;3.42;;
10511;SDS011;5304;48.604;2.096;2023-07-31T15:09:02;5.43;;;3.20;;
10511;SDS011;5304;48.604;2.096;2023-07-31T15:11:47;7.60;;;4.07;;
10511;SDS011;5304;48.604;2.096;2023-07-31T15:14:31;6.55;;;3.72;;
10511;SDS011;5304;48.604;2.096;2023-07-31T15:17:15;7.63;;;4.05;;
10511;SDS011;5304;48.604;2.096;2023-07-31T15:20:00;7.28;;;4.18;;
10511;SDS011;5304;48.604;2.096;2023-07-31T15:22:44;7.55;;;4.32;;
10511;SDS011;5304;48.604;2.096;2023-07-31T15:25:28;5.25;;;3.30;;
10511;SDS011;5304;48.604;2.096;2023-07-31T15:28:13;5.32;;;3.50;;
10511;SDS011;5304;48.604;2.096;2023-07-31T15:30:57;4.75;;;3.33;;
10511;SDS011;5304;48.604;2.096;2023-07-31T15:33:41;7.97;;;3.72;;
10511;SDS011;5304;48.604;2.096;2023-07-31T15:36:25;7.50;;;3.63;;
10511;SDS011;5304;48.604;2.096;2023-07-31T15:39:10;6.57;;;3.78;;
10511;SDS011;5304;48.604;2.096;2023-07-31T15:41:54;6.07;;;3.60;;
10511;SDS011;5304;48.604;2.096;2023-07-31T15:44:39;6.28;;;3.72;;
10511;SDS011;5304;48.604;2.096;2023-07-31T15:47:23;6.32;;;3.58;;
10511;SDS011;5304;48.604;2.096;2023-07-31T15:50:07;5.03;;;3.85;;
10511;SDS011;5304;48.604;2.096;2023-07-31T15:52:52;7.68;;;3.85;;
10511;SDS011;5304;48.604;2.096;2023-07-31T15:55:36;6.88;;;3.58;;
10511;SDS011;5304;48.604;2.096;2023-07-31T15:58:21;4.80;;;3.97;;
10511;SDS011;5304;48.604;2.096;2023-07-31T16:01:05;8.75;;;4.63;;
10511;SDS011;5304;48.604;2.096;2023-07-31T16:03:49;8.00;;;4.20;;
10511;SDS011;5304;48.604;2.096;2023-07-31T16:06:35;7.38;;;3.92;;
10511;SDS011;5304;48.604;2.096;2023-07-31T16:09:20;5.15;;;3.75;;
10511;SDS011;5304;48.604;2.096;2023-07-31T16:12:04;8.80;;;3.90;;
10511;SDS011;5304;48.604;2.096;2023-07-31T16:14:49;6.30;;;3.67;;
10511;SDS011;5304;48.604;2.096;2023-07-31T16:17:33;5.80;;;3.67;;
10511;SDS011;5304;48.604;2.096;2023-07-31T16:20:17;5.00;;;3.60;;
10511;SDS011;5304;48.604;2.096;2023-07-31T16:23:01;8.20;;;3.55;;
10511;SDS011;5304;48.604;2.096;2023-07-31T16:25:46;4.93;;;3.30;;
10511;SDS011;5304;48.604;2.096;2023-07-31T16:28:30;5.13;;;3.50;;
10511;SDS011;5304;48.604;2.096;2023-07-31T16:31:15;6.57;;;3.30;;
10511;SDS011;5304;48.604;2.096;2023-07-31T16:33:59;5.22;;;3.25;;
10511;SDS011;5304;48.604;2.096;2023-07-31T16:36:43;6.68;;;3.75;;
10511;SDS011;5304;48.604;2.096;2023-07-31T16:39:27;10.63;;;3.80;;
10511;SDS011;5304;48.604;2.096;2023-07-31T16:42:12;7.35;;;4.05;;
10511;SDS011;5304;48.604;2.096;2023-07-31T16:44:56;5.28;;;3.70;;
10511;SDS011;5304;48.604;2.096;2023-07-31T16:47:41;7.93;;;4.00;;
10511;SDS011;5304;48.604;2.096;2023-07-31T16:50:25;6.68;;;3.42;;
10511;SDS011;5304;48.604;2.096;2023-07-31T16:53:09;5.65;;;3.63;;
10511;SDS011;5304;48.604;2.096;2023-07-31T16:55:54;7.20;;;4.13;;
10511;SDS011;5304;48.604;2.096;2023-07-31T16:58:38;7.28;;;3.92;;
10511;SDS011;5304;48.604;2.096;2023-07-31T17:01:22;6.97;;;3.92;;
10511;SDS011;5304;48.604;2.096;2023-07-31T17:04:09;6.53;;;3.88;;
10511;SDS011;5304;48.604;2.096;2023-07-31T17:06:53;7.97;;;4.53;;
10511;SDS011;5304;48.604;2.096;2023-07-31T17:09:37;6.53;;;4.05;;
10511;SDS011;5304;48.604;2.096;2023-07-31T17:12:22;9.23;;;4.73;;
10511;SDS011;5304;48.604;2.096;2023-07-31T17:15:06;6.57;;;4.00;;
10511;SDS011;5304;48.604;2.096;2023-07-31T17:17:51;7.43;;;4.30;;
10511;SDS011;5304;48.604;2.096;2023-07-31T17:20:37;9.93;;;5.40;;
10511;SDS011;5304;48.604;2.096;2023-07-31T17:23:22;6.00;;;4.15;;
10511;SDS011;5304;48.604;2.096;2023-07-31T17:26:06;8.77;;;4.25;;
10511;SDS011;5304;48.604;2.096;2023-07-31T17:28:55;7.80;;;4.60;;
10511;SDS011;5304;48.604;2.096;2023-07-31T17:31:39;7.77;;;4.50;;
10511;SDS011;5304;48.604;2.096;2023-07-31T17:34:24;10.50;;;4.90;;
10511;SDS011;5304;48.604;2.096;2023-07-31T17:37:09;7.93;;;4.30;;
10511;SDS011;5304;48.604;2.096;2023-07-31T17:39:53;11.87;;;4.37;;
10511;SDS011;5304;48.604;2.096;2023-07-31T17:42:37;9.13;;;4.47;;
10511;SDS011;5304;48.604;2.096;2023-07-31T17:45:22;7.23;;;4.23;;
10511;SDS011;5304;48.604;2.096;2023-07-31T17:48:06;8.27;;;4.33;;
10511;SDS011;5304;48.604;2.096;2023-07-31T17:50:52;9.43;;;4.50;;
10511;SDS011;5304;48.604;2.096;2023-07-31T17:53:37;7.90;;;4.87;;
10511;SDS011;5304;48.604;2.096;2023-07-31T17:56:21;9.00;;;4.40;;
10511;SDS011;5304;48.604;2.096;2023-07-31T17:59:05;7.57;;;4.30;;
10511;SDS011;5304;48.604;2.096;2023-07-31T18:01:50;7.95;;;4.95;;
10511;SDS011;5304;48.604;2.096;2023-07-31T18:04:34;11.30;;;4.93;;
10511;SDS011;5304;48.604;2.096;2023-07-31T18:07:18;7.63;;;4.73;;
10511;SDS011;5304;48.604;2.096;2023-07-31T18:10:03;7.67;;;4.47;;
10511;SDS011;5304;48.604;2.096;2023-07-31T18:12:48;6.40;;;4.60;;
10511;SDS011;5304;48.604;2.096;2023-07-31T18:15:32;10.23;;;5.30;;
10511;SDS011;5304;48.604;2.096;2023-07-31T18:18:17;9.37;;;4.60;;
10511;SDS011;5304;48.604;2.096;2023-07-31T18:21:01;8.60;;;5.07;;
10511;SDS011;5304;48.604;2.096;2023-07-31T18:23:45;6.53;;;4.40;;
10511;SDS011;5304;48.604;2.096;2023-07-31T18:26:29;10.55;;;4.80;;
10511;SDS011;5304;48.604;2.096;2023-07-31T18:29:13;7.80;;;4.93;;
10511;SDS011;5304;48.604;2.096;2023-07-31T18:31:58;10.67;;;4.80;;
10511;SDS011;5304;48.604;2.096;2023-07-31T18:34:42;8.90;;;5.13;;
10511;SDS011;5304;48.604;2.096;2023-07-31T18:37:26;7.83;;;4.60;;
10511;SDS011;5304;48.604;2.096;2023-07-31T18:40:11;9.13;;;4.77;;
10511;SDS011;5304;48.604;2.096;2023-07-31T18:42:55;7.63;;;4.57;;
10511;SDS011;5304;48.604;2.096;2023-07-31T18:45:40;6.82;;;4.30;;
10511;SDS011;5304;48.604;2.096;2023-07-31T18:48:24;8.37;;;5.30;;
10511;SDS011;5304;48.604;2.096;2023-07-31T18:51:08;8.43;;;4.83;;
10511;SDS011;5304;48.604;2.096;2023-07-31T18:53:53;8.90;;;4.80;;
10511;SDS011;5304;48.604;2.096;2023-07-31T18:56:37;9.50;;;4.67;;
10511;SDS011;5304;48.604;2.096;2023-07-31T18:59:21;9.07;;;4.90;;
10511;SDS011;5304;48.604;2.096;2023-07-31T19:02:05;9.43;;;4.85;;
10511;SDS011;5304;48.604;2.096;2023-07-31T19:04:51;6.47;;;4.57;;
10511;SDS011;5304;48.604;2.096;2023-07-31T19:07:35;6.30;;;4.57;;
10511;SDS011;5304;48.604;2.096;2023-07-31T19:10:19;6.53;;;4.83;;
10511;SDS011;5304;48.604;2.096;2023-07-31T19:13:03;9.03;;;4.83;;
10511;SDS011;5304;48.604;2.096;2023-07-31T19:15:51;9.17;;;5.27;;
10511;SDS011;5304;48.604;2.096;2023-07-31T19:18:36;6.93;;;4.90;;
10511;SDS011;5304;48.604;2.096;2023-07-31T19:21:21;9.37;;;5.00;;
10511;SDS011;5304;48.604;2.096;2023-07-31T19:24:05;6.37;;;4.90;;
10511;SDS011;5304;48.604;2.096;2023-07-31T19:26:50;8.57;;;5.00;;
10511;SDS011;5304;48.604;2.096;2023-07-31T19:29:34;9.67;;;4.80;;
10511;SDS011;5304;48.604;2.096;2023-07-31T19:32:18;13.03;;;5.60;;
10511;SDS011;5304;48.604;2.096;2023-07-31T19:35:03;9.87;;;4.70;;
10511;SDS011;5304;48.604;2.096;2023-07-31T19:37:48;6.07;;;4.87;;
10511;SDS011;5304;48.604;2.096;2023-07-31T19:40:32;10.00;;;5.00;;
10511;SDS011;5304;48.604;2.096;2023-07-31T19:43:17;9.20;;;4.97;;
10511;SDS011;5304;48.604;2.096;2023-07-31T19:46:01;8.03;;;4.80;;
10511;SDS011;5304;48.604;2.096;2023-07-31T19:48:46;8.50;;;4.87;;
10511;SDS011;5304;48.604;2.096;2023-07-31T19:51:31;8.70;;;5.30;;
10511;SDS011;5304;48.604;2.096;2023-07-31T19:54:15;11.80;;;4.93;;
10511;SDS011;5304;48.604;2.096;2023-07-31T19:57:00;6.77;;;5.13;;
10511;SDS011;5304;48.604;2.096;2023-07-31T19:59:44;9.13;;;5.60;;
10511;SDS011;5304;48.604;2.096;2023-07-31T20:02:29;7.50;;;4.87;;
10511;SDS011;5304;48.604;2.096;2023-07-31T20:05:13;7.53;;;5.40;;
10511;SDS011;5304;48.604;2.096;2023-07-31T20:07:58;6.87;;;4.80;;
10511;SDS011;5304;48.604;2.096;2023-07-31T20:10:43;7.05;;;4.90;;
10511;SDS011;5304;48.604;2.096;2023-07-31T20:13:28;8.03;;;5.40;;
10511;SDS011;5304;48.604;2.096;2023-07-31T20:16:19;8.80;;;5.50;;
10511;SDS011;5304;48.604;2.096;2023-07-31T20:19:04;7.37;;;5.53;;
10511;SDS011;5304;48.604;2.096;2023-07-31T20:21:48;7.63;;;4.70;;
10511;SDS011;5304;48.604;2.096;2023-07-31T20:24:32;8.43;;;5.13;;
10511;SDS011;5304;48.604;2.096;2023-07-31T20:27:18;9.97;;;5.63;;
10511;SDS011;5304;48.604;2.096;2023-07-31T20:30:05;9.43;;;5.03;;
10511;SDS011;5304;48.604;2.096;2023-07-31T20:32:49;9.73;;;4.60;;
10511;SDS011;5304;48.604;2.096;2023-07-31T20:35:34;8.07;;;5.10;;
